sensor_id;sensor_type;location;lat;lon;timestamp;temperature;humidity
46652;DHT22;32377;52.182;5.398;2022-08-05T00:01:02;20.10;99.90
46652;DHT22;32377;52.182;5.398;2022-08-05T00:03:35;20.10;99.90
46652;DHT22;32377;52.182;5.398;2022-08-05T00:06:00;20.10;99.90
46652;DHT22;32377;52.182;5.398;2022-08-05T00:08:26;20.00;99.90
46652;DHT22;32377;52.182;5.398;2022-08-05T00:10:51;20.00;99.90
46652;DHT22;32377;52.182;5.398;2022-08-05T00:13:17;20.00;99.90
46652;DHT22;32377;52.182;5.398;2022-08-05T00:15:42;20.00;99.90
46652;DHT22;32377;52.182;5.398;2022-08-05T00:18:08;20.00;99.90
46652;DHT22;32377;52.182;5.398;2022-08-05T00:20:33;20.00;99.90
46652;DHT22;32377;52.182;5.398;2022-08-05T00:22:59;20.00;99.90
46652;DHT22;32377;52.182;5.398;2022-08-05T00:25:24;19.90;99.90
46652;DHT22;32377;52.182;5.398;2022-08-05T00:27:50;20.00;99.90
46652;DHT22;32377;52.182;5.398;2022-08-05T00:30:15;19.90;99.90
46652;DHT22;32377;52.182;5.398;2022-08-05T00:32:41;19.80;99.90
46652;DHT22;32377;52.182;5.398;2022-08-05T00:35:07;19.80;99.90
46652;DHT22;32377;52.182;5.398;2022-08-05T00:37:33;19.80;99.90
46652;DHT22;32377;52.182;5.398;2022-08-05T00:39:59;19.70;99.90
46652;DHT22;32377;52.182;5.398;2022-08-05T00:42:34;19.80;99.90
46652;DHT22;32377;52.182;5.398;2022-08-05T00:45:01;19.70;99.90
46652;DHT22;32377;52.182;5.398;2022-08-05T00:47:27;19.70;99.90
46652;DHT22;32377;52.182;5.398;2022-08-05T00:49:52;19.60;99.90
46652;DHT22;32377;52.182;5.398;2022-08-05T00:52:18;19.50;99.90
46652;DHT22;32377;52.182;5.398;2022-08-05T00:54:44;19.50;99.90
46652;DHT22;32377;52.182;5.398;2022-08-05T00:57:10;19.50;99.90
46652;DHT22;32377;52.182;5.398;2022-08-05T00:59:35;19.50;99.90
46652;DHT22;32377;52.182;5.398;2022-08-05T01:02:01;19.50;99.90
46652;DHT22;32377;52.182;5.398;2022-08-05T01:04:26;19.50;99.90
46652;DHT22;32377;52.182;5.398;2022-08-05T01:06:52;19.50;99.90
46652;DHT22;32377;52.182;5.398;2022-08-05T01:09:18;19.60;99.90
46652;DHT22;32377;52.182;5.398;2022-08-05T01:11:44;19.50;99.90
46652;DHT22;32377;52.182;5.398;2022-08-05T01:14:40;19.50;99.90
46652;DHT22;32377;52.182;5.398;2022-08-05T01:17:30;19.50;99.90
46652;DHT22;32377;52.182;5.398;2022-08-05T01:20:18;19.50;99.90
46652;DHT22;32377;52.182;5.398;2022-08-05T01:23:15;19.40;99.90
46652;DHT22;32377;52.182;5.398;2022-08-05T01:28:57;19.30;99.90
46652;DHT22;32377;52.182;5.398;2022-08-05T01:31:44;19.30;99.90
46652;DHT22;32377;52.182;5.398;2022-08-05T01:34:12;19.30;99.90
46652;DHT22;32377;52.182;5.398;2022-08-05T01:37:02;19.30;99.90
46652;DHT22;32377;52.182;5.398;2022-08-05T01:39:28;19.20;99.90
46652;DHT22;32377;52.182;5.398;2022-08-05T01:41:57;19.20;99.90
46652;DHT22;32377;52.182;5.398;2022-08-05T01:44:23;19.20;99.90
46652;DHT22;32377;52.182;5.398;2022-08-05T01:46:50;19.30;99.90
46652;DHT22;32377;52.182;5.398;2022-08-05T01:49:21;19.20;99.90
46652;DHT22;32377;52.182;5.398;2022-08-05T01:51:48;19.20;99.90
46652;DHT22;32377;52.182;5.398;2022-08-05T01:54:15;19.20;99.90
46652;DHT22;32377;52.182;5.398;2022-08-05T01:56:42;19.20;99.90
46652;DHT22;32377;52.182;5.398;2022-08-05T01:59:11;19.20;99.90
46652;DHT22;32377;52.182;5.398;2022-08-05T02:01:38;19.20;99.90
46652;DHT22;32377;52.182;5.398;2022-08-05T02:04:05;19.10;99.90
46652;DHT22;32377;52.182;5.398;2022-08-05T02:06:32;19.10;99.90
46652;DHT22;32377;52.182;5.398;2022-08-05T02:08:58;19.10;99.90
46652;DHT22;32377;52.182;5.398;2022-08-05T02:11:24;19.10;99.90
46652;DHT22;32377;52.182;5.398;2022-08-05T02:13:57;19.00;99.90
46652;DHT22;32377;52.182;5.398;2022-08-05T02:16:29;19.00;99.90
46652;DHT22;32377;52.182;5.398;2022-08-05T02:19:19;19.00;99.90
46652;DHT22;32377;52.182;5.398;2022-08-05T02:21:58;19.00;99.90
46652;DHT22;32377;52.182;5.398;2022-08-05T02:24:36;19.00;99.90
46652;DHT22;32377;52.182;5.398;2022-08-05T02:27:04;19.00;99.90
46652;DHT22;32377;52.182;5.398;2022-08-05T02:29:33;19.00;99.90
46652;DHT22;32377;52.182;5.398;2022-08-05T02:31:59;18.90;99.90
46652;DHT22;32377;52.182;5.398;2022-08-05T02:34:29;18.90;99.90
46652;DHT22;32377;52.182;5.398;2022-08-05T02:36:58;18.90;99.90
46652;DHT22;32377;52.182;5.398;2022-08-05T02:39:26;18.90;99.90
46652;DHT22;32377;52.182;5.398;2022-08-05T02:41:54;18.90;99.90
46652;DHT22;32377;52.182;5.398;2022-08-05T02:44:23;18.90;99.90
46652;DHT22;32377;52.182;5.398;2022-08-05T02:46:50;18.90;99.90
46652;DHT22;32377;52.182;5.398;2022-08-05T02:49:16;18.90;99.90
46652;DHT22;32377;52.182;5.398;2022-08-05T02:51:43;18.90;99.90
46652;DHT22;32377;52.182;5.398;2022-08-05T02:54:09;18.90;99.90
46652;DHT22;32377;52.182;5.398;2022-08-05T02:56:36;18.80;99.90
46652;DHT22;32377;52.182;5.398;2022-08-05T02:59:02;18.80;99.90
46652;DHT22;32377;52.182;5.398;2022-08-05T03:01:29;18.80;99.90
46652;DHT22;32377;52.182;5.398;2022-08-05T03:03:59;18.80;99.90
46652;DHT22;32377;52.182;5.398;2022-08-05T03:06:25;18.80;99.90
46652;DHT22;32377;52.182;5.398;2022-08-05T03:08:52;18.70;99.90
46652;DHT22;32377;52.182;5.398;2022-08-05T03:11:18;18.70;99.90
46652;DHT22;32377;52.182;5.398;2022-08-05T03:13:44;18.70;99.90
46652;DHT22;32377;52.182;5.398;2022-08-05T03:16:10;18.70;99.90
46652;DHT22;32377;52.182;5.398;2022-08-05T03:18:36;18.60;99.90
46652;DHT22;32377;52.182;5.398;2022-08-05T03:21:01;18.60;99.90
46652;DHT22;32377;52.182;5.398;2022-08-05T03:23:27;18.60;99.90
46652;DHT22;32377;52.182;5.398;2022-08-05T03:25:53;18.60;99.90
46652;DHT22;32377;52.182;5.398;2022-08-05T03:28:19;18.60;99.90
46652;DHT22;32377;52.182;5.398;2022-08-05T03:30:46;18.60;99.90
46652;DHT22;32377;52.182;5.398;2022-08-05T03:33:12;18.70;99.90
46652;DHT22;32377;52.182;5.398;2022-08-05T03:35:38;18.60;99.90
46652;DHT22;32377;52.182;5.398;2022-08-05T03:38:04;18.60;99.90
46652;DHT22;32377;52.182;5.398;2022-08-05T03:40:29;18.60;99.90
46652;DHT22;32377;52.182;5.398;2022-08-05T03:42:55;18.60;99.90
46652;DHT22;32377;52.182;5.398;2022-08-05T03:45:21;18.60;99.90
46652;DHT22;32377;52.182;5.398;2022-08-05T03:47:46;18.50;99.90
46652;DHT22;32377;52.182;5.398;2022-08-05T03:50:12;18.50;99.90
46652;DHT22;32377;52.182;5.398;2022-08-05T03:52:47;18.50;99.90
46652;DHT22;32377;52.182;5.398;2022-08-05T03:55:21;18.60;99.90
46652;DHT22;32377;52.182;5.398;2022-08-05T03:57:50;18.60;99.90
46652;DHT22;32377;52.182;5.398;2022-08-05T04:00:16;18.60;99.90
46652;DHT22;32377;52.182;5.398;2022-08-05T04:02:45;18.50;99.90
46652;DHT22;32377;52.182;5.398;2022-08-05T04:05:13;18.50;99.90
46652;DHT22;32377;52.182;5.398;2022-08-05T04:07:40;18.50;99.90
46652;DHT22;32377;52.182;5.398;2022-08-05T04:10:07;18.60;99.90
46652;DHT22;32377;52.182;5.398;2022-08-05T04:12:33;18.60;99.90
46652;DHT22;32377;52.182;5.398;2022-08-05T04:14:59;18.50;99.90
46652;DHT22;32377;52.182;5.398;2022-08-05T04:17:25;18.50;99.90
46652;DHT22;32377;52.182;5.398;2022-08-05T04:19:51;18.50;99.90
46652;DHT22;32377;52.182;5.398;2022-08-05T04:22:16;18.50;99.90
46652;DHT22;32377;52.182;5.398;2022-08-05T04:24:44;18.50;99.90
46652;DHT22;32377;52.182;5.398;2022-08-05T04:27:11;18.60;99.90
46652;DHT22;32377;52.182;5.398;2022-08-05T04:29:36;18.60;99.90
46652;DHT22;32377;52.182;5.398;2022-08-05T04:32:02;18.50;99.90
46652;DHT22;32377;52.182;5.398;2022-08-05T04:34:27;18.50;99.90
46652;DHT22;32377;52.182;5.398;2022-08-05T04:36:53;18.50;99.90
46652;DHT22;32377;52.182;5.398;2022-08-05T04:39:19;18.60;99.90
46652;DHT22;32377;52.182;5.398;2022-08-05T04:41:46;18.60;99.90
46652;DHT22;32377;52.182;5.398;2022-08-05T04:44:12;18.60;99.90
46652;DHT22;32377;52.182;5.398;2022-08-05T04:46:38;18.60;99.90
46652;DHT22;32377;52.182;5.398;2022-08-05T04:49:04;18.60;99.90
46652;DHT22;32377;52.182;5.398;2022-08-05T04:51:30;18.60;99.90
46652;DHT22;32377;52.182;5.398;2022-08-05T04:53:57;18.60;99.90
46652;DHT22;32377;52.182;5.398;2022-08-05T04:56:23;18.70;99.90
46652;DHT22;32377;52.182;5.398;2022-08-05T04:58:48;18.70;99.90
46652;DHT22;32377;52.182;5.398;2022-08-05T05:01:14;18.60;99.90
46652;DHT22;32377;52.182;5.398;2022-08-05T05:03:39;18.60;99.90
46652;DHT22;32377;52.182;5.398;2022-08-05T05:06:09;18.60;99.90
46652;DHT22;32377;52.182;5.398;2022-08-05T05:08:36;18.50;99.90
46652;DHT22;32377;52.182;5.398;2022-08-05T05:11:02;18.50;99.90
46652;DHT22;32377;52.182;5.398;2022-08-05T05:13:27;18.40;99.90
46652;DHT22;32377;52.182;5.398;2022-08-05T05:15:53;18.40;99.90
46652;DHT22;32377;52.182;5.398;2022-08-05T05:18:18;18.40;99.90
46652;DHT22;32377;52.182;5.398;2022-08-05T05:20:45;18.30;99.90
46652;DHT22;32377;52.182;5.398;2022-08-05T05:23:11;18.40;99.90
46652;DHT22;32377;52.182;5.398;2022-08-05T05:25:40;18.40;99.90
46652;DHT22;32377;52.182;5.398;2022-08-05T05:28:05;18.40;99.90
46652;DHT22;32377;52.182;5.398;2022-08-05T05:30:31;18.40;99.90
46652;DHT22;32377;52.182;5.398;2022-08-05T05:32:58;18.50;99.90
46652;DHT22;32377;52.182;5.398;2022-08-05T05:35:24;18.50;99.90
46652;DHT22;32377;52.182;5.398;2022-08-05T05:37:54;18.50;99.90
46652;DHT22;32377;52.182;5.398;2022-08-05T05:40:21;18.60;99.90
46652;DHT22;32377;52.182;5.398;2022-08-05T05:42:48;18.60;99.90
46652;DHT22;32377;52.182;5.398;2022-08-05T05:45:14;18.70;99.90
46652;DHT22;32377;52.182;5.398;2022-08-05T05:47:40;18.70;99.90
46652;DHT22;32377;52.182;5.398;2022-08-05T05:50:07;18.70;99.90
46652;DHT22;32377;52.182;5.398;2022-08-05T05:52:33;18.80;99.90
46652;DHT22;32377;52.182;5.398;2022-08-05T05:55:00;18.80;99.90
46652;DHT22;32377;52.182;5.398;2022-08-05T05:57:26;18.70;99.90
46652;DHT22;32377;52.182;5.398;2022-08-05T05:59:51;18.70;99.90
46652;DHT22;32377;52.182;5.398;2022-08-05T06:02:17;18.70;99.90
46652;DHT22;32377;52.182;5.398;2022-08-05T06:04:43;18.80;99.90
46652;DHT22;32377;52.182;5.398;2022-08-05T06:07:08;18.90;99.90
46652;DHT22;32377;52.182;5.398;2022-08-05T06:09:34;19.00;99.90
46652;DHT22;32377;52.182;5.398;2022-08-05T06:11:59;19.00;99.90
46652;DHT22;32377;52.182;5.398;2022-08-05T06:14:25;19.10;99.90
46652;DHT22;32377;52.182;5.398;2022-08-05T06:16:51;19.10;99.90
46652;DHT22;32377;52.182;5.398;2022-08-05T06:19:16;19.20;99.90
46652;DHT22;32377;52.182;5.398;2022-08-05T06:21:42;19.40;99.90
46652;DHT22;32377;52.182;5.398;2022-08-05T06:24:08;19.50;99.90
46652;DHT22;32377;52.182;5.398;2022-08-05T06:26:34;19.50;99.90
46652;DHT22;32377;52.182;5.398;2022-08-05T06:28:59;19.70;99.90
46652;DHT22;32377;52.182;5.398;2022-08-05T06:31:25;19.70;99.90
46652;DHT22;32377;52.182;5.398;2022-08-05T06:33:51;19.60;99.90
46652;DHT22;32377;52.182;5.398;2022-08-05T06:36:16;19.60;99.90
46652;DHT22;32377;52.182;5.398;2022-08-05T06:38:42;19.60;99.90
46652;DHT22;32377;52.182;5.398;2022-08-05T06:41:07;19.50;99.90
46652;DHT22;32377;52.182;5.398;2022-08-05T06:43:33;19.50;99.90
46652;DHT22;32377;52.182;5.398;2022-08-05T06:45:59;19.50;99.90
46652;DHT22;32377;52.182;5.398;2022-08-05T06:48:24;19.60;99.90
46652;DHT22;32377;52.182;5.398;2022-08-05T06:50:50;19.60;99.90
46652;DHT22;32377;52.182;5.398;2022-08-05T06:53:16;19.60;99.90
46652;DHT22;32377;52.182;5.398;2022-08-05T06:55:42;19.60;99.90
46652;DHT22;32377;52.182;5.398;2022-08-05T06:58:07;19.40;99.90
46652;DHT22;32377;52.182;5.398;2022-08-05T07:00:33;19.50;99.90
46652;DHT22;32377;52.182;5.398;2022-08-05T07:02:59;19.50;99.90
46652;DHT22;32377;52.182;5.398;2022-08-05T07:05:24;19.40;99.90
46652;DHT22;32377;52.182;5.398;2022-08-05T07:07:50;19.30;99.90
46652;DHT22;32377;52.182;5.398;2022-08-05T07:10:16;19.40;99.90
46652;DHT22;32377;52.182;5.398;2022-08-05T07:12:42;19.60;99.90
46652;DHT22;32377;52.182;5.398;2022-08-05T07:15:26;19.80;99.90
46652;DHT22;32377;52.182;5.398;2022-08-05T07:18:10;19.80;99.90
46652;DHT22;32377;52.182;5.398;2022-08-05T07:20:36;19.90;99.90
46652;DHT22;32377;52.182;5.398;2022-08-05T07:23:01;20.10;99.90
46652;DHT22;32377;52.182;5.398;2022-08-05T07:25:27;20.20;99.90
46652;DHT22;32377;52.182;5.398;2022-08-05T07:27:53;20.40;99.90
46652;DHT22;32377;52.182;5.398;2022-08-05T07:30:19;20.40;99.90
46652;DHT22;32377;52.182;5.398;2022-08-05T07:32:45;20.60;99.90
46652;DHT22;32377;52.182;5.398;2022-08-05T07:35:12;20.60;99.90
46652;DHT22;32377;52.182;5.398;2022-08-05T07:37:38;20.70;99.90
46652;DHT22;32377;52.182;5.398;2022-08-05T07:40:06;20.70;99.90
46652;DHT22;32377;52.182;5.398;2022-08-05T07:42:32;20.80;99.90
46652;DHT22;32377;52.182;5.398;2022-08-05T07:44:58;20.80;99.90
46652;DHT22;32377;52.182;5.398;2022-08-05T07:47:23;20.90;99.90
46652;DHT22;32377;52.182;5.398;2022-08-05T07:49:49;20.80;99.90
46652;DHT22;32377;52.182;5.398;2022-08-05T07:52:18;21.00;99.90
46652;DHT22;32377;52.182;5.398;2022-08-05T07:54:44;21.00;99.90
46652;DHT22;32377;52.182;5.398;2022-08-05T07:57:10;21.10;99.90
46652;DHT22;32377;52.182;5.398;2022-08-05T07:59:36;21.30;99.90
46652;DHT22;32377;52.182;5.398;2022-08-05T08:02:01;21.10;99.90
46652;DHT22;32377;52.182;5.398;2022-08-05T08:04:27;21.20;99.90
46652;DHT22;32377;52.182;5.398;2022-08-05T08:06:53;21.00;99.90
46652;DHT22;32377;52.182;5.398;2022-08-05T08:09:19;21.20;99.90
46652;DHT22;32377;52.182;5.398;2022-08-05T08:11:45;21.40;99.90
46652;DHT22;32377;52.182;5.398;2022-08-05T08:14:10;21.40;99.90
46652;DHT22;32377;52.182;5.398;2022-08-05T08:16:36;21.40;99.90
46652;DHT22;32377;52.182;5.398;2022-08-05T08:19:02;21.20;99.90
46652;DHT22;32377;52.182;5.398;2022-08-05T08:21:27;21.00;99.90
46652;DHT22;32377;52.182;5.398;2022-08-05T08:23:53;20.90;99.90
46652;DHT22;32377;52.182;5.398;2022-08-05T08:26:19;21.00;99.90
46652;DHT22;32377;52.182;5.398;2022-08-05T08:28:45;21.00;99.90
46652;DHT22;32377;52.182;5.398;2022-08-05T08:31:11;21.10;99.90
46652;DHT22;32377;52.182;5.398;2022-08-05T08:33:36;21.30;99.90
46652;DHT22;32377;52.182;5.398;2022-08-05T08:36:02;21.30;99.90
46652;DHT22;32377;52.182;5.398;2022-08-05T08:38:28;21.30;99.90
46652;DHT22;32377;52.182;5.398;2022-08-05T08:40:53;21.30;99.90
46652;DHT22;32377;52.182;5.398;2022-08-05T08:43:20;21.40;99.90
46652;DHT22;32377;52.182;5.398;2022-08-05T08:45:48;21.60;99.90
46652;DHT22;32377;52.182;5.398;2022-08-05T08:48:14;21.50;99.90
46652;DHT22;32377;52.182;5.398;2022-08-05T08:50:42;21.40;99.90
46652;DHT22;32377;52.182;5.398;2022-08-05T08:53:09;21.40;99.90
46652;DHT22;32377;52.182;5.398;2022-08-05T08:55:37;21.50;99.90
46652;DHT22;32377;52.182;5.398;2022-08-05T08:58:03;21.40;99.90
46652;DHT22;32377;52.182;5.398;2022-08-05T09:00:29;21.40;99.90
46652;DHT22;32377;52.182;5.398;2022-08-05T09:02:55;21.30;99.90
46652;DHT22;32377;52.182;5.398;2022-08-05T09:05:22;21.30;99.90
46652;DHT22;32377;52.182;5.398;2022-08-05T09:07:49;21.40;99.90
46652;DHT22;32377;52.182;5.398;2022-08-05T09:10:15;21.40;99.90
46652;DHT22;32377;52.182;5.398;2022-08-05T09:12:40;21.80;99.90
46652;DHT22;32377;52.182;5.398;2022-08-05T09:15:06;21.90;99.90
46652;DHT22;32377;52.182;5.398;2022-08-05T09:17:32;21.90;99.90
46652;DHT22;32377;52.182;5.398;2022-08-05T09:19:58;21.90;99.90
46652;DHT22;32377;52.182;5.398;2022-08-05T09:22:25;22.00;99.90
46652;DHT22;32377;52.182;5.398;2022-08-05T09:25:00;22.10;99.90
46652;DHT22;32377;52.182;5.398;2022-08-05T09:27:34;22.40;99.90
46652;DHT22;32377;52.182;5.398;2022-08-05T09:30:00;22.40;99.90
46652;DHT22;32377;52.182;5.398;2022-08-05T09:32:36;22.30;99.80
46652;DHT22;32377;52.182;5.398;2022-08-05T09:35:15;22.40;99.90
46652;DHT22;32377;52.182;5.398;2022-08-05T09:37:52;22.70;99.60
46652;DHT22;32377;52.182;5.398;2022-08-05T09:40:32;22.50;99.90
46652;DHT22;32377;52.182;5.398;2022-08-05T09:42:59;22.50;99.90
46652;DHT22;32377;52.182;5.398;2022-08-05T09:45:39;22.60;99.90
46652;DHT22;32377;52.182;5.398;2022-08-05T09:48:30;22.50;99.90
46652;DHT22;32377;52.182;5.398;2022-08-05T09:50:59;22.40;99.90
46652;DHT22;32377;52.182;5.398;2022-08-05T09:53:25;22.20;99.90
46652;DHT22;32377;52.182;5.398;2022-08-05T09:55:59;22.20;99.30
46652;DHT22;32377;52.182;5.398;2022-08-05T09:58:26;22.20;99.10
46652;DHT22;32377;52.182;5.398;2022-08-05T10:01:06;22.30;97.50
46652;DHT22;32377;52.182;5.398;2022-08-05T10:03:36;22.40;97.10
46652;DHT22;32377;52.182;5.398;2022-08-05T10:06:07;22.10;97.30
46652;DHT22;32377;52.182;5.398;2022-08-05T10:08:34;22.00;97.80
46652;DHT22;32377;52.182;5.398;2022-08-05T10:11:02;22.20;97.50
46652;DHT22;32377;52.182;5.398;2022-08-05T10:13:35;22.20;97.80
46652;DHT22;32377;52.182;5.398;2022-08-05T10:16:03;22.40;98.00
46652;DHT22;32377;52.182;5.398;2022-08-05T10:18:30;22.20;98.30
46652;DHT22;32377;52.182;5.398;2022-08-05T10:21:03;22.30;98.70
46652;DHT22;32377;52.182;5.398;2022-08-05T10:23:34;22.50;98.50
46652;DHT22;32377;52.182;5.398;2022-08-05T10:26:03;22.50;98.20
46652;DHT22;32377;52.182;5.398;2022-08-05T10:28:30;22.70;97.40
46652;DHT22;32377;52.182;5.398;2022-08-05T10:30:56;22.60;95.70
46652;DHT22;32377;52.182;5.398;2022-08-05T10:33:24;22.80;94.60
46652;DHT22;32377;52.182;5.398;2022-08-05T10:35:52;22.90;94.90
46652;DHT22;32377;52.182;5.398;2022-08-05T10:38:19;22.80;94.00
46652;DHT22;32377;52.182;5.398;2022-08-05T10:46:09;22.80;94.00
46652;DHT22;32377;52.182;5.398;2022-08-05T10:51:21;22.80;93.40
46652;DHT22;32377;52.182;5.398;2022-08-05T10:56:17;23.30;93.40
46652;DHT22;32377;52.182;5.398;2022-08-05T11:01:35;23.20;93.40
46652;DHT22;32377;52.182;5.398;2022-08-05T11:04:08;23.20;93.70
46652;DHT22;32377;52.182;5.398;2022-08-05T11:09:45;23.00;94.00
46652;DHT22;32377;52.182;5.398;2022-08-05T11:17:43;23.20;94.90
46652;DHT22;32377;52.182;5.398;2022-08-05T11:22:57;23.30;95.10
46652;DHT22;32377;52.182;5.398;2022-08-05T11:25:34;23.20;94.90
46652;DHT22;32377;52.182;5.398;2022-08-05T11:33:51;23.50;95.00
46652;DHT22;32377;52.182;5.398;2022-08-05T11:36:29;23.30;95.10
46652;DHT22;32377;52.182;5.398;2022-08-05T11:39:03;23.30;95.00
46652;DHT22;32377;52.182;5.398;2022-08-05T11:41:29;23.50;95.40
46652;DHT22;32377;52.182;5.398;2022-08-05T11:44:10;23.40;94.50
46652;DHT22;32377;52.182;5.398;2022-08-05T11:46:53;23.20;95.00
46652;DHT22;32377;52.182;5.398;2022-08-05T11:49:21;23.10;94.30
46652;DHT22;32377;52.182;5.398;2022-08-05T11:51:49;23.10;94.60
46652;DHT22;32377;52.182;5.398;2022-08-05T11:54:29;23.00;95.40
46652;DHT22;32377;52.182;5.398;2022-08-05T11:56:55;23.00;96.80
46652;DHT22;32377;52.182;5.398;2022-08-05T11:59:23;22.70;97.60
46652;DHT22;32377;52.182;5.398;2022-08-05T12:02:01;22.30;97.20
46652;DHT22;32377;52.182;5.398;2022-08-05T12:04:37;22.30;97.50
46652;DHT22;32377;52.182;5.398;2022-08-05T12:07:05;22.20;97.30
46652;DHT22;32377;52.182;5.398;2022-08-05T12:09:35;22.40;97.10
46652;DHT22;32377;52.182;5.398;2022-08-05T12:12:01;22.40;96.30
46652;DHT22;32377;52.182;5.398;2022-08-05T12:14:40;22.40;95.70
46652;DHT22;32377;52.182;5.398;2022-08-05T12:17:11;22.50;96.10
46652;DHT22;32377;52.182;5.398;2022-08-05T12:19:45;22.70;96.30
46652;DHT22;32377;52.182;5.398;2022-08-05T12:22:12;22.60;97.10
46652;DHT22;32377;52.182;5.398;2022-08-05T12:24:43;22.50;98.00
46652;DHT22;32377;52.182;5.398;2022-08-05T12:27:09;22.40;98.70
46652;DHT22;32377;52.182;5.398;2022-08-05T12:29:36;22.50;99.10
46652;DHT22;32377;52.182;5.398;2022-08-05T12:32:01;22.40;99.50
46652;DHT22;32377;52.182;5.398;2022-08-05T12:34:32;22.30;99.90
46652;DHT22;32377;52.182;5.398;2022-08-05T12:37:00;22.40;99.90
46652;DHT22;32377;52.182;5.398;2022-08-05T12:39:32;22.60;99.90
46652;DHT22;32377;52.182;5.398;2022-08-05T12:41:58;22.50;99.90
46652;DHT22;32377;52.182;5.398;2022-08-05T12:44:25;22.40;99.90
46652;DHT22;32377;52.182;5.398;2022-08-05T12:46:53;22.20;99.90
46652;DHT22;32377;52.182;5.398;2022-08-05T12:49:19;22.10;99.90
46652;DHT22;32377;52.182;5.398;2022-08-05T12:51:55;22.10;99.90
46652;DHT22;32377;52.182;5.398;2022-08-05T12:54:29;22.20;99.90
46652;DHT22;32377;52.182;5.398;2022-08-05T12:57:01;22.40;99.90
46652;DHT22;32377;52.182;5.398;2022-08-05T13:00:18;22.50;99.90
46652;DHT22;32377;52.182;5.398;2022-08-05T13:02:25;22.50;99.90
46652;DHT22;32377;52.182;5.398;2022-08-05T13:04:52;22.70;99.90
46652;DHT22;32377;52.182;5.398;2022-08-05T13:07:20;22.40;99.90
46652;DHT22;32377;52.182;5.398;2022-08-05T13:09:51;22.60;99.90
46652;DHT22;32377;52.182;5.398;2022-08-05T13:12:18;22.60;99.90
46652;DHT22;32377;52.182;5.398;2022-08-05T13:14:52;22.40;99.90
46652;DHT22;32377;52.182;5.398;2022-08-05T13:17:23;22.30;99.90
46652;DHT22;32377;52.182;5.398;2022-08-05T13:20:02;22.20;99.90
46652;DHT22;32377;52.182;5.398;2022-08-05T13:22:29;22.50;99.90
46652;DHT22;32377;52.182;5.398;2022-08-05T13:24:57;22.40;99.90
46652;DHT22;32377;52.182;5.398;2022-08-05T13:29:52;22.40;99.90
46652;DHT22;32377;52.182;5.398;2022-08-05T13:32:17;22.40;99.20
46652;DHT22;32377;52.182;5.398;2022-08-05T13:34:43;22.30;99.60
46652;DHT22;32377;52.182;5.398;2022-08-05T13:37:09;22.20;99.30
46652;DHT22;32377;52.182;5.398;2022-08-05T13:39:34;22.00;99.60
46652;DHT22;32377;52.182;5.398;2022-08-05T13:42:00;21.90;99.90
46652;DHT22;32377;52.182;5.398;2022-08-05T13:44:25;21.90;99.90
46652;DHT22;32377;52.182;5.398;2022-08-05T13:46:51;22.10;99.90
46652;DHT22;32377;52.182;5.398;2022-08-05T13:49:16;22.10;99.90
46652;DHT22;32377;52.182;5.398;2022-08-05T13:51:42;22.10;99.80
46652;DHT22;32377;52.182;5.398;2022-08-05T13:54:08;22.20;99.40
46652;DHT22;32377;52.182;5.398;2022-08-05T13:56:34;22.30;99.40
46652;DHT22;32377;52.182;5.398;2022-08-05T13:58:59;22.10;99.20
46652;DHT22;32377;52.182;5.398;2022-08-05T14:01:25;22.10;99.10
46652;DHT22;32377;52.182;5.398;2022-08-05T14:03:50;22.20;98.80
46652;DHT22;32377;52.182;5.398;2022-08-05T14:06:35;22.20;98.70
46652;DHT22;32377;52.182;5.398;2022-08-05T14:09:01;22.30;98.90
46652;DHT22;32377;52.182;5.398;2022-08-05T14:11:26;22.40;98.70
46652;DHT22;32377;52.182;5.398;2022-08-05T14:13:53;22.60;98.70
46652;DHT22;32377;52.182;5.398;2022-08-05T14:16:19;22.80;98.70
46652;DHT22;32377;52.182;5.398;2022-08-05T14:18:44;22.80;98.40
46652;DHT22;32377;52.182;5.398;2022-08-05T14:21:12;22.80;97.50
46652;DHT22;32377;52.182;5.398;2022-08-05T14:23:40;22.50;97.40
46652;DHT22;32377;52.182;5.398;2022-08-05T14:26:06;22.40;98.10
46652;DHT22;32377;52.182;5.398;2022-08-05T14:28:31;22.30;98.40
46652;DHT22;32377;52.182;5.398;2022-08-05T14:30:58;22.40;98.10
46652;DHT22;32377;52.182;5.398;2022-08-05T14:33:24;22.20;98.20
46652;DHT22;32377;52.182;5.398;2022-08-05T14:35:50;22.00;98.20
46652;DHT22;32377;52.182;5.398;2022-08-05T14:38:16;22.00;98.50
46652;DHT22;32377;52.182;5.398;2022-08-05T14:40:41;21.90;98.20
46652;DHT22;32377;52.182;5.398;2022-08-05T14:43:07;21.70;98.20
46652;DHT22;32377;52.182;5.398;2022-08-05T14:45:32;21.60;98.90
46652;DHT22;32377;52.182;5.398;2022-08-05T14:47:58;21.50;99.20
46652;DHT22;32377;52.182;5.398;2022-08-05T14:50:23;21.60;99.90
46652;DHT22;32377;52.182;5.398;2022-08-05T14:52:49;21.50;99.90
46652;DHT22;32377;52.182;5.398;2022-08-05T14:55:14;21.60;99.90
46652;DHT22;32377;52.182;5.398;2022-08-05T14:57:43;21.60;99.90
46652;DHT22;32377;52.182;5.398;2022-08-05T15:00:09;21.70;99.90
46652;DHT22;32377;52.182;5.398;2022-08-05T15:02:35;21.70;99.90
46652;DHT22;32377;52.182;5.398;2022-08-05T15:05:00;21.40;99.90
46652;DHT22;32377;52.182;5.398;2022-08-05T15:07:26;21.60;99.90
46652;DHT22;32377;52.182;5.398;2022-08-05T15:09:51;21.70;99.90
46652;DHT22;32377;52.182;5.398;2022-08-05T15:12:17;21.70;99.90
46652;DHT22;32377;52.182;5.398;2022-08-05T15:14:43;21.60;99.90
46652;DHT22;32377;52.182;5.398;2022-08-05T15:17:12;21.50;99.90
46652;DHT22;32377;52.182;5.398;2022-08-05T15:19:37;21.40;99.90
46652;DHT22;32377;52.182;5.398;2022-08-05T15:22:03;21.40;99.90
46652;DHT22;32377;52.182;5.398;2022-08-05T15:24:28;21.30;99.90
46652;DHT22;32377;52.182;5.398;2022-08-05T15:26:54;21.20;99.90
46652;DHT22;32377;52.182;5.398;2022-08-05T15:29:19;21.20;99.90
46652;DHT22;32377;52.182;5.398;2022-08-05T15:31:45;21.30;99.90
46652;DHT22;32377;52.182;5.398;2022-08-05T15:34:11;21.20;99.90
46652;DHT22;32377;52.182;5.398;2022-08-05T15:36:37;21.30;99.90
46652;DHT22;32377;52.182;5.398;2022-08-05T15:39:02;21.00;99.90
46652;DHT22;32377;52.182;5.398;2022-08-05T15:41:28;20.80;99.90
46652;DHT22;32377;52.182;5.398;2022-08-05T15:43:53;20.80;99.90
46652;DHT22;32377;52.182;5.398;2022-08-05T15:46:19;20.90;99.90
46652;DHT22;32377;52.182;5.398;2022-08-05T15:48:45;20.80;99.90
46652;DHT22;32377;52.182;5.398;2022-08-05T15:51:10;21.00;99.90
46652;DHT22;32377;52.182;5.398;2022-08-05T15:53:36;21.00;99.90
46652;DHT22;32377;52.182;5.398;2022-08-05T15:56:03;20.90;99.90
46652;DHT22;32377;52.182;5.398;2022-08-05T15:58:29;20.90;99.90
46652;DHT22;32377;52.182;5.398;2022-08-05T16:00:55;20.90;99.90
46652;DHT22;32377;52.182;5.398;2022-08-05T16:03:20;20.80;99.90
46652;DHT22;32377;52.182;5.398;2022-08-05T16:05:46;20.60;99.90
46652;DHT22;32377;52.182;5.398;2022-08-05T16:08:11;20.60;99.90
46652;DHT22;32377;52.182;5.398;2022-08-05T16:10:37;20.70;99.90